Norseman, Australia
Current Conditions -  °F | °C
As of 12:30 PM on Friday 21 Nov 2014 (Local Time) from YPKG Reporting Station
Clear Clear  
Wind Chill: 82°   Ceiling: Unl
Heat Index: 82°   Visibility: 6mi
Dew Point: 36°   Wind: 8mph
Humidity: 19%   Direction: 270°W
Pressure: 29.8"   Gusts: NA
Location:  32.2°S, 121.78°E
Report Text: YPKG 210430Z AUTO 27007KT 9999 // NCD 28/02 Q1009
Loading
Personal Weather Stations






























Interactive Weather Map New forecast layout! Learn more

10-Day Weather Forecast

Advertisements
Track Severe Weather on mobile